Time;durP1;ratioP1;P1;durP2;ratioP2;P2;SDS_P1;SDS_P2;PMS_P1;PMS_P2;Temp;Humidity;BMP_temperature;BMP_pressure;BME280_temperature;BME280_humidity;BME280_pressure;Samples;Min_cycle;Max_cycle;Signal;HPM_P1;HPM_P2
2024/04/22 00:04:55;;;;;;;;;9.00;9.00;;;;;;;;6492423;39;8841;-64
2024/04/22 00:11:03;;;;;;;;;12.75;12.50;;;;;;;;6492372;39;9035;-64
2024/04/22 00:17:08;;;;;;;;;13.25;12.25;;;;;;;;6491313;39;8940;-63
2024/04/22 00:23:10;;;;;;;;;13.25;12.00;;;;;;;;6492366;31;8908;-65
2024/04/22 00:29:22;;;;;;;;;12.25;12.25;;;;;;;;6491977;46;8912;-65
2024/04/22 00:35:23;;;;;;;;;13.50;12.50;;;;;;;;6491620;46;8889;-66
2024/04/22 00:41:26;;;;;;;;;14.75;14.75;;;;;;;;6492216;39;9032;-65
2024/04/22 00:47:28;;;;;;;;;19.00;18.50;;;;;;;;6491464;39;8915;-65
2024/04/22 00:53:34;;;;;;;;;20.00;19.00;;;;;;;;6491463;46;8857;-64
2024/04/22 00:59:42;;;;;;;;;18.25;15.50;;;;;;;;6492003;39;8972;-66
2024/04/22 01:05:52;;;;;;;;;16.25;16.25;;;;;;;;6491036;46;8982;-65
2024/04/22 01:11:55;;;;;;;;;15.00;14.00;;;;;;;;6492127;39;8928;-64
2024/04/22 01:17:59;;;;;;;;;14.25;14.25;;;;;;;;6490747;39;9623;-64
2024/04/22 01:24:02;;;;;;;;;16.00;16.00;;;;;;;;6491081;46;8919;-64
2024/04/22 01:30:05;;;;;;;;;22.00;19.00;;;;;;;;6491819;39;8929;-65
2024/04/22 01:36:09;;;;;;;;;18.50;17.00;;;;;;;;6491112;39;8945;-64
2024/04/22 01:42:11;;;;;;;;;18.75;18.75;;;;;;;;6491345;39;8920;-64
2024/04/22 01:48:15;;;;;;;;;19.00;18.75;;;;;;;;6491567;39;8967;-65
2024/04/22 01:54:16;;;;;;;;;20.50;17.25;;;;;;;;6490969;39;8951;-64
2024/04/22 02:00:19;;;;;;;;;19.00;19.00;;;;;;;;6491557;39;8956;-64
2024/04/22 02:06:21;;;;;;;;;20.25;19.25;;;;;;;;6491504;39;8869;-65
2024/04/22 02:12:23;;;;;;;;;18.75;18.75;;;;;;;;6490532;46;8967;-63
2024/04/22 02:18:25;;;;;;;;;21.00;19.50;;;;;;;;6490521;39;8901;-66
2024/04/22 02:24:27;;;;;;;;;18.75;17.75;;;;;;;;6490686;46;8893;-65
2024/04/22 02:30:32;;;;;;;;;21.00;19.50;;;;;;;;6491036;46;8876;-63
2024/04/22 02:36:35;;;;;;;;;25.50;23.50;;;;;;;;6490610;46;9259;-65
2024/04/22 02:42:37;;;;;;;;;22.50;21.25;;;;;;;;6491158;39;8935;-65
2024/04/22 02:48:41;;;;;;;;;24.00;23.00;;;;;;;;6490724;46;8893;-66
2024/04/22 02:54:43;;;;;;;;;30.00;27.75;;;;;;;;6490382;46;9125;-65
2024/04/22 03:00:53;;;;;;;;;25.00;24.50;;;;;;;;6491203;39;8952;-64
2024/04/22 03:06:57;;;;;;;;;32.50;28.00;;;;;;;;6489378;39;8864;-65
2024/04/22 03:13:09;;;;;;;;;29.00;25.00;;;;;;;;6491183;39;8915;-65
2024/04/22 03:19:17;;;;;;;;;29.75;26.75;;;;;;;;6491539;31;8923;-65
2024/04/22 03:25:22;;;;;;;;;30.00;28.00;;;;;;;;6491015;47;8870;-63
2024/04/22 03:31:31;;;;;;;;;23.25;22.75;;;;;;;;6490524;31;9477;-65
2024/04/22 03:37:32;;;;;;;;;21.25;18.50;;;;;;;;6489879;39;9018;-65
2024/04/22 03:43:41;;;;;;;;;20.75;20.25;;;;;;;;6491122;39;9488;-64
2024/04/22 03:49:53;;;;;;;;;21.75;20.25;;;;;;;;6489778;47;8903;-65
2024/04/22 03:55:55;;;;;;;;;22.25;20.50;;;;;;;;6490018;39;9530;-65
2024/04/22 04:01:58;;;;;;;;;20.50;20.00;;;;;;;;6469904;39;9364;-64
2024/04/22 04:08:00;;;;;;;;;21.50;20.75;;;;;;;;6490157;39;8862;-65
2024/04/22 04:14:02;;;;;;;;;17.25;17.25;;;;;;;;6490891;39;8905;-65
2024/04/22 04:20:03;;;;;;;;;22.75;22.75;;;;;;;;6493145;39;8909;-64
2024/04/22 04:26:04;;;;;;;;;22.75;21.00;;;;;;;;6492797;46;8893;-63
2024/04/22 04:32:07;;;;;;;;;20.25;17.75;;;;;;;;6492745;31;9005;-64
2024/04/22 04:38:07;;;;;;;;;23.00;21.00;;;;;;;;6493440;39;9551;-63
2024/04/22 04:44:08;;;;;;;;;16.50;16.50;;;;;;;;6492713;46;8879;-63
2024/04/22 04:50:10;;;;;;;;;17.00;16.25;;;;;;;;6494645;31;8890;-64
2024/04/22 04:56:12;;;;;;;;;23.75;22.25;;;;;;;;6492677;31;8959;-64
2024/04/22 05:02:12;;;;;;;;;25.75;20.25;;;;;;;;6492247;46;9079;-64
2024/04/22 05:08:15;;;;;;;;;18.25;16.00;;;;;;;;6493426;39;8904;-64
2024/04/22 05:14:17;;;;;;;;;19.25;18.50;;;;;;;;6492638;39;9516;-64
2024/04/22 05:20:18;;;;;;;;;26.50;23.75;;;;;;;;6492947;46;8886;-64
2024/04/22 05:26:20;;;;;;;;;21.50;19.75;;;;;;;;6492705;39;8848;-65
2024/04/22 05:32:23;;;;;;;;;20.00;20.00;;;;;;;;6492515;39;9018;-64
2024/04/22 05:38:25;;;;;;;;;27.00;24.00;;;;;;;;6491729;46;8933;-64
2024/04/22 05:44:26;;;;;;;;;25.00;22.75;;;;;;;;6492479;31;9578;-63
2024/04/22 05:50:27;;;;;;;;;20.50;18.25;;;;;;;;6491725;39;8857;-63
2024/04/22 05:56:28;;;;;;;;;20.00;18.50;;;;;;;;6488338;39;8925;-62
2024/04/22 06:02:29;;;;;;;;;17.50;17.00;;;;;;;;6488601;31;9092;-64
2024/04/22 06:08:32;;;;;;;;;15.50;15.50;;;;;;;;6488415;46;9059;-64
2024/04/22 06:14:33;;;;;;;;;10.00;8.75;;;;;;;;6489790;46;8925;-61
2024/04/22 06:20:34;;;;;;;;;19.00;16.75;;;;;;;;6489534;39;8901;-63
2024/04/22 06:26:35;;;;;;;;;14.25;14.25;;;;;;;;6488284;31;9008;-63
2024/04/22 06:32:36;;;;;;;;;8.25;8.25;;;;;;;;6486039;39;9027;-64
2024/04/22 06:38:39;;;;;;;;;3.00;3.00;;;;;;;;6487870;31;9572;-62
2024/04/22 06:44:42;;;;;;;;;6.50;6.50;;;;;;;;6487129;39;9725;-64
2024/04/22 06:50:46;;;;;;;;;6.00;6.00;;;;;;;;6486501;39;9020;-62
2024/04/22 06:56:47;;;;;;;;;10.00;10.00;;;;;;;;6483840;31;9030;-63
2024/04/22 07:02:49;;;;;;;;;12.33;11.00;;;;;;;;6484119;47;9020;-64
2024/04/22 07:08:50;;;;;;;;;8.67;8.33;;;;;;;;6484330;47;8916;-65
2024/04/22 07:14:51;;;;;;;;;9.25;9.25;;;;;;;;6485444;31;8931;-64
2024/04/22 07:20:52;;;;;;;;;13.25;10.75;;;;;;;;6486608;31;8924;-61
2024/04/22 07:26:54;;;;;;;;;19.75;19.00;;;;;;;;6485227;46;8933;-61
2024/04/22 07:32:55;;;;;;;;;19.00;15.50;;;;;;;;6485353;31;9564;-62
2024/04/22 07:39:00;;;;;;;;;29.00;26.00;;;;;;;;6486148;39;9590;-61
2024/04/22 07:45:01;;;;;;;;;31.25;28.25;;;;;;;;6483308;47;8944;-61
2024/04/22 07:51:04;;;;;;;;;38.25;36.00;;;;;;;;6483914;31;8986;-61
2024/04/22 07:57:05;;;;;;;;;25.50;24.50;;;;;;;;6485312;31;8966;-61
2024/04/22 08:03:12;;;;;;;;;29.25;28.75;;;;;;;;6486412;39;9083;-61
2024/04/22 08:09:19;;;;;;;;;35.50;34.25;;;;;;;;6488664;39;8993;-60
2024/04/22 08:15:20;;;;;;;;;27.50;24.00;;;;;;;;6487590;46;8921;-61
2024/04/22 08:21:26;;;;;;;;;22.50;21.50;;;;;;;;6486745;39;9629;-62
2024/04/22 08:27:30;;;;;;;;;38.50;35.75;;;;;;;;6488744;39;9005;-63
2024/04/22 08:33:31;;;;;;;;;21.25;20.75;;;;;;;;6486954;39;8915;-61
2024/04/22 08:39:32;;;;;;;;;55.00;45.00;;;;;;;;6486465;31;9071;-63
2024/04/22 08:45:33;;;;;;;;;31.60;30.80;;;;;;;;6305373;45;10001175;-61
2024/04/22 08:51:36;;;;;;;;;19.50;19.00;;;;;;;;6485081;39;9107;-60
2024/04/22 08:57:38;;;;;;;;;20.25;20.25;;;;;;;;6485400;39;9692;-61
2024/04/22 09:03:39;;;;;;;;;30.75;30.25;;;;;;;;6486993;31;9024;-62
2024/04/22 09:09:45;;;;;;;;;21.00;20.75;;;;;;;;6486622;39;8966;-61
2024/04/22 09:15:53;;;;;;;;;20.00;18.75;;;;;;;;6486391;46;9087;-62
2024/04/22 09:21:57;;;;;;;;;17.50;17.25;;;;;;;;6485675;39;9143;-64
2024/04/22 09:28:00;;;;;;;;;19.25;18.75;;;;;;;;6488339;31;9069;-61
2024/04/22 09:34:04;;;;;;;;;19.25;18.25;;;;;;;;6485673;31;9198;-62
2024/04/22 09:40:10;;;;;;;;;22.00;22.00;;;;;;;;6486950;39;9112;-62
2024/04/22 09:46:13;;;;;;;;;23.75;23.00;;;;;;;;6486761;39;8920;-62
2024/04/22 09:52:16;;;;;;;;;28.25;25.00;;;;;;;;6485883;39;9003;-62
2024/04/22 09:58:20;;;;;;;;;16.75;16.75;;;;;;;;6486334;46;9086;-62
2024/04/22 10:04:21;;;;;;;;;24.75;21.25;;;;;;;;6486767;39;8957;-63
2024/04/22 10:10:23;;;;;;;;;20.75;19.50;;;;;;;;6486588;46;8900;-62
2024/04/22 10:16:24;;;;;;;;;25.00;24.50;;;;;;;;6486352;39;8906;-61
2024/04/22 10:22:32;;;;;;;;;27.25;26.00;;;;;;;;6483406;39;8940;-63
2024/04/22 10:28:33;;;;;;;;;25.75;23.50;;;;;;;;6485696;39;9052;-61
2024/04/22 10:34:38;;;;;;;;;33.00;31.75;;;;;;;;6486203;39;9640;-63
2024/04/22 10:40:39;;;;;;;;;20.00;18.75;;;;;;;;6485763;39;8948;-61
2024/04/22 10:46:41;;;;;;;;;20.00;18.25;;;;;;;;6485963;46;8922;-61
2024/04/22 10:52:43;;;;;;;;;23.25;22.25;;;;;;;;6485103;31;8893;-61
2024/04/22 10:58:44;;;;;;;;;22.75;22.75;;;;;;;;6485867;46;8954;-61
2024/04/22 11:04:45;;;;;;;;;23.25;22.00;;;;;;;;6483051;46;8977;-61
2024/04/22 11:10:48;;;;;;;;;16.50;16.25;;;;;;;;6486493;31;9059;-61
2024/04/22 11:16:58;;;;;;;;;16.50;15.50;;;;;;;;6485916;47;8963;-61
2024/04/22 11:23:00;;;;;;;;;21.50;20.50;;;;;;;;6485845;31;9064;-60
2024/04/22 11:29:04;;;;;;;;;22.50;21.25;;;;;;;;6486630;31;9061;-62
2024/04/22 11:35:06;;;;;;;;;23.00;23.00;;;;;;;;6487876;31;9659;-62
2024/04/22 11:41:08;;;;;;;;;22.67;20.67;;;;;;;;6487747;46;8981;-63
2024/04/22 11:47:10;;;;;;;;;25.00;23.67;;;;;;;;6485514;46;9075;-62
2024/04/22 11:53:11;;;;;;;;;26.33;24.00;;;;;;;;6487137;39;9035;-61
2024/04/22 11:59:12;;;;;;;;;29.33;27.33;;;;;;;;6487900;39;8957;-62
2024/04/22 12:05:14;;;;;;;;;27.33;26.00;;;;;;;;6486932;46;8952;-62
2024/04/22 12:11:16;;;;;;;;;25.00;25.00;;;;;;;;6486812;31;8925;-62
2024/04/22 12:17:18;;;;;;;;;31.00;30.00;;;;;;;;6487193;39;9055;-62
2024/04/22 12:23:21;;;;;;;;;27.00;25.33;;;;;;;;6487409;46;8977;-61
2024/04/22 12:29:22;;;;;;;;;35.00;32.33;;;;;;;;6488010;39;8924;-62
2024/04/22 12:35:25;;;;;;;;;29.00;27.00;;;;;;;;6487255;39;8945;-61
2024/04/22 12:41:26;;;;;;;;;31.67;30.00;;;;;;;;6487493;39;9563;-61
2024/04/22 12:53:48;;;;;;;;;28.33;28.33;;;;;;;;6488803;39;8916;-61
2024/04/22 12:59:51;;;;;;;;;25.67;25.00;;;;;;;;6489254;39;9064;-61
2024/04/22 13:05:52;;;;;;;;;26.67;25.00;;;;;;;;6490876;39;8991;-62
2024/04/22 13:11:53;;;;;;;;;28.33;26.33;;;;;;;;6489512;39;8937;-63
2024/04/22 13:17:54;;;;;;;;;28.67;27.00;;;;;;;;6489490;31;9155;-61
2024/04/22 13:23:55;;;;;;;;;30.33;28.00;;;;;;;;6488605;46;8920;-60
2024/04/22 13:30:02;;;;;;;;;28.00;27.00;;;;;;;;6489239;39;8870;-61
2024/04/22 13:36:04;;;;;;;;;31.67;30.00;;;;;;;;6489151;31;8909;-60
2024/04/22 13:42:06;;;;;;;;;33.33;32.33;;;;;;;;6491030;39;8944;-61
2024/04/22 13:48:08;;;;;;;;;31.00;31.00;;;;;;;;6490254;39;8897;-60
2024/04/22 13:54:10;;;;;;;;;36.67;34.00;;;;;;;;6489607;39;8898;-61
2024/04/22 14:00:13;;;;;;;;;28.00;28.00;;;;;;;;6490726;46;9039;-60
2024/04/22 14:06:15;;;;;;;;;30.00;27.00;;;;;;;;6490075;46;9011;-62
2024/04/22 14:12:18;;;;;;;;;30.33;30.00;;;;;;;;6490569;39;8929;-62
2024/04/22 14:18:20;;;;;;;;;29.67;26.00;;;;;;;;6490420;46;8924;-63
2024/04/22 14:24:22;;;;;;;;;34.67;34.00;;;;;;;;6489985;31;8936;-63
2024/04/22 14:30:24;;;;;;;;;28.67;28.67;;;;;;;;6490472;46;9087;-62
2024/04/22 14:36:27;;;;;;;;;37.33;34.00;;;;;;;;6489553;39;9072;-62
2024/04/22 14:42:29;;;;;;;;;32.00;28.67;;;;;;;;6491014;39;8967;-61
2024/04/22 14:48:31;;;;;;;;;32.33;32.33;;;;;;;;6490638;39;8964;-61
2024/04/22 14:54:33;;;;;;;;;33.33;33.33;;;;;;;;6489923;39;8951;-62
2024/04/22 15:00:35;;;;;;;;;33.00;33.00;;;;;;;;6489947;46;9031;-62
2024/04/22 15:06:37;;;;;;;;;34.00;32.67;;;;;;;;6490831;31;8990;-61
2024/04/22 15:12:38;;;;;;;;;34.00;30.75;;;;;;;;6489905;47;8926;-61
2024/04/22 15:18:40;;;;;;;;;23.00;23.00;;;;;;;;6491074;31;8930;-61
2024/04/22 15:24:42;;;;;;;;;33.33;32.00;;;;;;;;6489831;39;8933;-61
2024/04/22 15:30:45;;;;;;;;;30.67;28.00;;;;;;;;6489792;39;8930;-63
2024/04/22 15:36:47;;;;;;;;;31.67;30.67;;;;;;;;6488716;31;8954;-60
2024/04/22 15:42:52;;;;;;;;;34.67;30.00;;;;;;;;6489304;39;9609;-61
2024/04/22 15:48:56;;;;;;;;;32.33;30.00;;;;;;;;6490110;39;9018;-63
2024/04/22 15:54:58;;;;;;;;;33.67;31.33;;;;;;;;6488701;39;8998;-62
2024/04/22 16:01:00;;;;;;;;;29.67;28.33;;;;;;;;6489734;39;9069;-61
2024/04/22 16:07:02;;;;;;;;;30.00;29.00;;;;;;;;6489405;39;8926;-63
2024/04/22 16:13:05;;;;;;;;;31.67;29.33;;;;;;;;6490179;39;9096;-61
2024/04/22 16:19:07;;;;;;;;;28.33;28.00;;;;;;;;6492147;39;8933;-63
2024/04/22 16:25:11;;;;;;;;;27.67;25.67;;;;;;;;6490791;39;8929;-62
2024/04/22 16:31:13;;;;;;;;;28.50;27.00;;;;;;;;6491278;39;8922;-61
2024/04/22 16:37:17;;;;;;;;;21.25;20.75;;;;;;;;6491015;39;8944;-59
2024/04/22 16:43:21;;;;;;;;;26.50;24.25;;;;;;;;6491153;39;8989;-61
2024/04/22 16:49:25;;;;;;;;;30.00;27.25;;;;;;;;6491987;39;8890;-61
2024/04/22 16:55:28;;;;;;;;;25.00;20.50;;;;;;;;6490691;46;8918;-65
2024/04/22 17:01:32;;;;;;;;;26.75;25.50;;;;;;;;6490698;46;8966;-64
2024/04/22 17:07:34;;;;;;;;;28.00;25.50;;;;;;;;6489185;39;8966;-65
2024/04/22 17:13:37;;;;;;;;;31.50;31.00;;;;;;;;6491153;39;9969;-65
2024/04/22 17:19:41;;;;;;;;;27.75;27.00;;;;;;;;6490397;39;8926;-64
2024/04/22 17:25:48;;;;;;;;;29.75;27.25;;;;;;;;6490556;46;8913;-65
2024/04/22 17:31:49;;;;;;;;;32.00;29.00;;;;;;;;6490918;31;8926;-65
2024/04/22 17:37:52;;;;;;;;;28.25;28.25;;;;;;;;6490503;39;8938;-65
2024/04/22 17:43:56;;;;;;;;;32.75;31.25;;;;;;;;6491204;39;8958;-65
2024/04/22 17:49:57;;;;;;;;;34.75;29.50;;;;;;;;6491905;31;8926;-64
2024/04/22 17:55:59;;;;;;;;;31.25;28.75;;;;;;;;6490824;31;8918;-65
2024/04/22 18:02:05;;;;;;;;;30.00;28.25;;;;;;;;6490914;39;9073;-67
2024/04/22 18:08:13;;;;;;;;;32.00;30.50;;;;;;;;6489960;46;8954;-64
2024/04/22 18:14:17;;;;;;;;;30.75;26.25;;;;;;;;6491316;39;8898;-65
2024/04/22 18:20:18;;;;;;;;;25.50;24.75;;;;;;;;6490752;39;9057;-64
2024/04/22 18:26:19;;;;;;;;;22.50;22.50;;;;;;;;6489021;46;8918;-64
2024/04/22 18:32:20;;;;;;;;;27.00;26.25;;;;;;;;6490927;46;8934;-65
2024/04/22 18:38:21;;;;;;;;;25.75;25.75;;;;;;;;6489690;46;9090;-66
2024/04/22 18:44:26;;;;;;;;;32.50;30.25;;;;;;;;6490103;39;8926;-65
2024/04/22 18:50:28;;;;;;;;;28.00;26.75;;;;;;;;6490279;39;9628;-65
2024/04/22 18:56:31;;;;;;;;;26.75;26.50;;;;;;;;6490011;39;9521;-65
2024/04/22 19:02:32;;;;;;;;;28.25;25.50;;;;;;;;6490758;39;9081;-63
2024/04/22 19:08:34;;;;;;;;;32.25;28.00;;;;;;;;6490730;39;9560;-63
2024/04/22 19:14:35;;;;;;;;;34.75;29.75;;;;;;;;6489588;46;9029;-65
2024/04/22 19:20:38;;;;;;;;;30.00;25.25;;;;;;;;6490738;39;8920;-65
2024/04/22 19:26:41;;;;;;;;;26.25;26.25;;;;;;;;6488861;39;8999;-65
2024/04/22 19:32:42;;;;;;;;;26.75;26.75;;;;;;;;6491178;39;9048;-65
2024/04/22 19:38:45;;;;;;;;;27.50;26.75;;;;;;;;6490284;31;8948;-64
2024/04/22 19:44:52;;;;;;;;;31.00;30.00;;;;;;;;6489889;39;8931;-65
2024/04/22 19:50:52;;;;;;;;;30.00;26.25;;;;;;;;6490834;46;8916;-65
2024/04/22 19:56:55;;;;;;;;;25.75;25.00;;;;;;;;6491544;39;9560;-64
2024/04/22 20:02:59;;;;;;;;;30.50;29.75;;;;;;;;6491712;46;9096;-64
2024/04/22 20:09:02;;;;;;;;;36.00;30.50;;;;;;;;6492271;39;8890;-65
2024/04/22 20:15:05;;;;;;;;;30.75;30.75;;;;;;;;6492566;39;9032;-65
2024/04/22 20:21:07;;;;;;;;;26.00;25.00;;;;;;;;6491253;39;8914;-65
2024/04/22 20:27:10;;;;;;;;;34.75;29.25;;;;;;;;6491279;39;8912;-65
2024/04/22 20:33:11;;;;;;;;;26.00;23.75;;;;;;;;6492079;39;8897;-65
2024/04/22 20:39:13;;;;;;;;;24.75;23.50;;;;;;;;6491432;39;8941;-65
2024/04/22 20:45:14;;;;;;;;;30.75;30.00;;;;;;;;6491707;39;8996;-66
2024/04/22 20:51:16;;;;;;;;;28.50;24.50;;;;;;;;6492697;39;8902;-65
2024/04/22 20:57:18;;;;;;;;;29.75;25.75;;;;;;;;6491838;39;9127;-66
2024/04/22 21:03:20;;;;;;;;;24.50;23.75;;;;;;;;6491373;39;8956;-64
2024/04/22 21:09:22;;;;;;;;;22.25;21.25;;;;;;;;6490415;39;8921;-65
2024/04/22 21:15:26;;;;;;;;;25.75;24.75;;;;;;;;6491443;39;8944;-64
2024/04/22 21:21:27;;;;;;;;;30.50;24.25;;;;;;;;6490612;46;8916;-65
2024/04/22 21:27:31;;;;;;;;;24.00;23.00;;;;;;;;6490491;46;8906;-64
2024/04/22 21:33:38;;;;;;;;;25.50;23.75;;;;;;;;6492683;31;9095;-66
2024/04/22 21:39:40;;;;;;;;;28.00;26.50;;;;;;;;6490525;39;9062;-65
2024/04/22 21:45:45;;;;;;;;;26.75;25.25;;;;;;;;6491329;39;9068;-66
2024/04/22 21:51:47;;;;;;;;;26.00;24.75;;;;;;;;6491630;39;8912;-64
2024/04/22 21:58:26;;;;;;;;;29.00;26.00;;;;;;;;6489881;46;8920;-65
2024/04/22 22:05:07;;;;;;;;;28.25;27.00;;;;;;;;6491247;39;8955;-65
2024/04/22 22:11:09;;;;;;;;;29.50;27.25;;;;;;;;6490224;31;8916;-64
2024/04/22 22:17:12;;;;;;;;;26.00;24.75;;;;;;;;6491236;39;8924;-64
2024/04/22 22:23:13;;;;;;;;;25.75;24.25;;;;;;;;6489411;39;8931;-64
2024/04/22 22:29:15;;;;;;;;;29.00;26.50;;;;;;;;6490317;46;9103;-63
2024/04/22 22:35:16;;;;;;;;;21.50;17.75;;;;;;;;6490629;39;9099;-65
2024/04/22 22:41:19;;;;;;;;;20.25;19.75;;;;;;;;6490576;39;8940;-64
2024/04/22 22:47:21;;;;;;;;;30.75;24.75;;;;;;;;6491170;39;9030;-64
2024/04/22 22:53:22;;;;;;;;;22.50;21.75;;;;;;;;6489297;46;8915;-63
2024/04/22 22:59:25;;;;;;;;;17.75;17.75;;;;;;;;6489919;46;8919;-64
2024/04/22 23:05:27;;;;;;;;;25.25;22.25;;;;;;;;6489904;46;8990;-65
2024/04/22 23:11:28;;;;;;;;;24.25;22.00;;;;;;;;6490198;39;8942;-64
2024/04/22 23:17:30;;;;;;;;;23.50;21.00;;;;;;;;6491733;39;8904;-65
2024/04/22 23:23:34;;;;;;;;;23.00;22.75;;;;;;;;6490471;39;9002;-65
2024/04/22 23:29:35;;;;;;;;;22.00;18.75;;;;;;;;6493304;39;9526;-66
2024/04/22 23:35:36;;;;;;;;;25.25;22.00;;;;;;;;6492224;39;8932;-65
2024/04/22 23:41:39;;;;;;;;;20.75;19.50;;;;;;;;6491921;39;9010;-63
2024/04/22 23:47:41;;;;;;;;;25.25;23.75;;;;;;;;6492247;39;9678;-64
2024/04/22 23:53:43;;;;;;;;;24.25;22.00;;;;;;;;6491566;46;8920;-63
2024/04/22 23:59:45;;;;;;;;;24.25;23.50;;;;;;;;6491663;46;8943;-65
